createdAt,value
2023-07-04T00:01:19.394Z,18.66
2023-07-04T00:03:54.916Z,18.62
2023-07-04T00:06:25.096Z,18.59
2023-07-04T00:08:53.199Z,18.53
2023-07-04T00:11:21.542Z,18.50
2023-07-04T00:13:53.781Z,18.48
2023-07-04T00:16:22.084Z,18.44
2023-07-04T00:18:51.077Z,18.38
2023-07-04T00:21:20.143Z,18.36
2023-07-04T00:23:54.027Z,18.32
2023-07-04T00:26:24.773Z,18.29
2023-07-04T00:28:53.662Z,18.24
2023-07-04T00:31:25.360Z,18.21
2023-07-04T00:33:54.477Z,18.17
2023-07-04T00:36:22.610Z,18.13
2023-07-04T00:38:57.279Z,18.09
2023-07-04T00:41:29.975Z,18.05
2023-07-04T00:44:15.470Z,18.01
2023-07-04T00:47:06.083Z,17.96
2023-07-04T00:49:43.234Z,17.93
2023-07-04T00:52:15.433Z,17.89
2023-07-04T00:54:46.241Z,17.85
2023-07-04T00:57:15.920Z,17.81
2023-07-04T00:59:46.231Z,17.79
2023-07-04T01:02:16.936Z,17.76
2023-07-04T01:04:49.676Z,17.73
2023-07-04T01:07:24.077Z,17.72
2023-07-04T01:09:59.429Z,17.69
2023-07-04T01:12:31.292Z,17.67
2023-07-04T01:15:01.698Z,17.65
2023-07-04T01:17:31.350Z,17.66
2023-07-04T01:19:59.928Z,17.66
2023-07-04T01:22:50.138Z,17.68
2023-07-04T01:25:25.369Z,17.72
2023-07-04T01:28:00.911Z,17.75
2023-07-04T01:30:30.621Z,17.76
2023-07-04T01:33:02.121Z,17.75
2023-07-04T01:35:30.379Z,17.73
2023-07-04T01:38:00.420Z,17.70
2023-07-04T01:40:31.471Z,17.65
2023-07-04T01:43:00.321Z,17.62
2023-07-04T01:45:28.216Z,17.56
2023-07-04T01:47:56.039Z,17.51
2023-07-04T01:50:25.006Z,17.47
2023-07-04T01:52:52.905Z,17.43
2023-07-04T01:55:21.169Z,17.37
2023-07-04T01:57:50.374Z,17.31
2023-07-04T02:00:20.043Z,17.25
2023-07-04T02:02:47.985Z,17.21
2023-07-04T02:05:20.787Z,17.17
2023-07-04T02:07:48.562Z,17.14
2023-07-04T02:10:16.473Z,17.10
2023-07-04T02:12:44.367Z,17.06
2023-07-04T02:15:13.352Z,17.02
2023-07-04T02:17:41.758Z,16.97
2023-07-04T02:20:10.387Z,16.95
2023-07-04T02:22:41.979Z,16.91
2023-07-04T02:25:10.685Z,16.92
2023-07-04T02:27:38.601Z,16.91
2023-07-04T02:30:07.245Z,16.91
2023-07-04T02:32:35.056Z,16.91
2023-07-04T02:35:02.861Z,16.88
2023-07-04T02:37:30.753Z,16.87
2023-07-04T02:39:58.716Z,16.87
2023-07-04T02:42:26.468Z,16.85
2023-07-04T02:44:54.376Z,16.85
2023-07-04T02:47:27.614Z,16.84
2023-07-04T02:49:55.802Z,16.83
2023-07-04T02:52:25.302Z,16.80
2023-07-04T02:54:53.505Z,16.78
2023-07-04T02:57:23.299Z,16.74
2023-07-04T02:59:51.124Z,16.71
2023-07-04T03:02:20.049Z,16.67
2023-07-04T03:04:49.132Z,16.66
2023-07-04T03:07:17.152Z,16.64
2023-07-04T03:09:45.060Z,16.60
2023-07-04T03:12:12.892Z,16.55
2023-07-04T03:14:40.711Z,16.53
2023-07-04T03:17:09.127Z,16.52
2023-07-04T03:19:37.151Z,16.55
2023-07-04T03:22:05.573Z,16.62
2023-07-04T03:24:36.116Z,16.68
2023-07-04T03:27:04.411Z,16.74
2023-07-04T03:29:32.192Z,16.77
2023-07-04T03:31:59.965Z,16.77
2023-07-04T03:34:27.884Z,16.80
2023-07-04T03:36:55.724Z,16.82
2023-07-04T03:39:23.607Z,16.82
2023-07-04T03:41:51.449Z,16.83
2023-07-04T03:44:19.230Z,16.83
2023-07-04T03:46:47.111Z,16.82
2023-07-04T03:49:14.970Z,16.81
2023-07-04T03:51:43.024Z,16.81
2023-07-04T03:54:11.292Z,16.84
2023-07-04T03:56:39.164Z,16.88
2023-07-04T03:59:07.025Z,16.93
2023-07-04T04:01:34.894Z,16.99
2023-07-04T04:04:02.937Z,17.03
2023-07-04T04:06:30.857Z,17.05
2023-07-04T04:08:58.761Z,17.08
2023-07-04T04:11:26.786Z,17.07
2023-07-04T04:13:54.804Z,17.07
2023-07-04T04:16:23.477Z,17.08
2023-07-04T04:18:52.496Z,17.09
2023-07-04T04:21:20.430Z,17.11
2023-07-04T04:23:48.287Z,17.12
2023-07-04T04:26:16.462Z,17.12
2023-07-04T04:28:44.233Z,17.11
2023-07-04T04:31:13.195Z,17.13
2023-07-04T04:33:41.216Z,17.17
2023-07-04T04:36:09.070Z,17.24
2023-07-04T04:38:39.497Z,17.34
2023-07-04T04:41:08.130Z,17.41
2023-07-04T04:43:36.070Z,17.46
2023-07-04T04:46:04.720Z,17.50
2023-07-04T04:48:36.726Z,17.55
2023-07-04T04:51:11.542Z,17.59
2023-07-04T04:53:41.223Z,17.61
2023-07-04T04:56:09.898Z,17.62
2023-07-04T04:58:38.529Z,17.63
2023-07-04T05:01:17.800Z,17.64
2023-07-04T05:03:46.477Z,17.65
2023-07-04T05:06:14.471Z,17.67
2023-07-04T05:08:42.366Z,17.70
2023-07-04T05:11:10.371Z,17.71
2023-07-04T05:13:39.526Z,17.73
2023-07-04T05:16:11.271Z,17.75
2023-07-04T05:18:39.711Z,17.76
2023-07-04T05:21:10.554Z,17.78
2023-07-04T05:23:40.729Z,17.80
2023-07-04T05:26:29.502Z,17.82
2023-07-04T05:28:59.971Z,17.84
2023-07-04T05:31:29.492Z,17.87
2023-07-04T05:33:57.939Z,17.89
2023-07-04T05:36:29.828Z,17.93
2023-07-04T05:39:03.949Z,17.96
2023-07-04T05:41:33.709Z,17.99
2023-07-04T05:44:05.740Z,18.02
2023-07-04T05:46:34.544Z,18.05
2023-07-04T05:49:03.696Z,18.09
2023-07-04T05:51:32.480Z,18.12
2023-07-04T05:54:00.254Z,18.16
2023-07-04T05:56:31.746Z,18.21
2023-07-04T05:59:01.299Z,18.25
2023-07-04T06:01:29.194Z,18.29
2023-07-04T06:03:59.857Z,18.35
2023-07-04T06:06:29.389Z,18.39
2023-07-04T06:08:59.643Z,18.45
2023-07-04T06:11:31.582Z,18.51
2023-07-04T06:13:59.866Z,18.57
2023-07-04T06:16:27.733Z,18.62
2023-07-04T06:18:55.746Z,18.68
2023-07-04T06:21:38.401Z,18.74
2023-07-04T06:24:11.967Z,18.79
2023-07-04T06:26:39.956Z,18.85
2023-07-04T06:29:07.795Z,18.91
2023-07-04T06:31:35.667Z,18.98
2023-07-04T06:34:03.582Z,19.04
2023-07-04T06:36:31.963Z,19.10
2023-07-04T06:39:01.398Z,19.14
2023-07-04T06:41:29.321Z,19.20
2023-07-04T06:43:57.101Z,19.26
2023-07-04T06:46:25.109Z,19.32
2023-07-04T06:48:53.206Z,19.39
2023-07-04T06:51:21.840Z,19.44
2023-07-04T06:53:51.206Z,19.50
2023-07-04T06:56:21.848Z,19.56
2023-07-04T06:58:54.737Z,19.62
2023-07-04T07:01:28.975Z,19.69
2023-07-04T07:03:58.995Z,19.75
2023-07-04T07:06:28.021Z,19.82
2023-07-04T07:08:56.351Z,19.89
2023-07-04T07:11:26.268Z,19.95
2023-07-04T07:13:54.413Z,20.02
2023-07-04T07:16:24.904Z,20.08
2023-07-04T07:19:01.022Z,20.16
2023-07-04T07:21:28.950Z,20.23
2023-07-04T07:23:58.606Z,20.30
2023-07-04T07:26:29.457Z,20.36
2023-07-04T07:28:58.950Z,20.44
2023-07-04T07:31:33.858Z,20.52
2023-07-04T07:34:04.303Z,20.60
2023-07-04T07:36:42.066Z,20.68
2023-07-04T07:39:12.573Z,20.74
2023-07-04T07:41:44.683Z,20.81
2023-07-04T07:44:12.557Z,20.88
2023-07-04T07:46:40.764Z,20.93
2023-07-04T07:49:08.920Z,20.99
2023-07-04T07:51:38.870Z,21.04
2023-07-04T07:54:07.991Z,21.10
2023-07-04T07:56:45.686Z,21.17
2023-07-04T07:59:13.978Z,21.25
2023-07-04T08:01:41.794Z,21.32
2023-07-04T08:04:10.747Z,21.39
2023-07-04T08:06:43.412Z,21.47
2023-07-04T08:09:14.522Z,21.54
2023-07-04T08:11:44.533Z,21.63
2023-07-04T08:14:14.830Z,21.72
2023-07-04T08:16:44.830Z,21.81
2023-07-04T08:19:13.842Z,21.87
2023-07-04T08:21:41.754Z,21.93
2023-07-04T08:24:13.990Z,22.01
2023-07-04T08:26:45.693Z,22.10
2023-07-04T08:29:15.393Z,22.15
2023-07-04T08:31:43.981Z,22.21
2023-07-04T08:34:12.282Z,22.26
2023-07-04T08:36:41.598Z,22.29
2023-07-04T08:39:10.857Z,22.34
2023-07-04T08:41:54.257Z,22.40
2023-07-04T08:44:23.926Z,22.46
2023-07-04T08:46:56.371Z,22.52
2023-07-04T08:49:42.618Z,22.59
2023-07-04T08:52:22.773Z,22.66
2023-07-04T08:54:51.971Z,22.75
2023-07-04T08:57:32.060Z,22.82
2023-07-04T09:00:08.154Z,22.88
2023-07-04T09:02:43.958Z,22.93
2023-07-04T09:05:25.362Z,22.97
2023-07-04T09:08:15.948Z,22.95
2023-07-04T09:10:48.321Z,22.99
2023-07-04T09:13:32.898Z,23.01
2023-07-04T09:16:06.349Z,23.04
2023-07-04T09:18:43.068Z,23.11
2023-07-04T09:21:14.073Z,23.17
2023-07-04T09:23:42.907Z,23.20
2023-07-04T09:26:12.414Z,23.24
2023-07-04T09:28:42.894Z,23.27
2023-07-04T09:31:19.603Z,23.32
2023-07-04T09:33:53.845Z,23.37
2023-07-04T09:36:29.441Z,23.42
2023-07-04T09:39:00.240Z,23.48
2023-07-04T09:41:31.268Z,23.53
2023-07-04T09:44:16.453Z,23.58
2023-07-04T09:46:52.910Z,23.63
2023-07-04T09:49:30.249Z,23.69
2023-07-04T09:52:03.853Z,23.77
2023-07-04T09:54:34.504Z,23.81
2023-07-04T09:57:24.156Z,23.84
2023-07-04T09:59:55.029Z,23.90
2023-07-04T10:02:26.836Z,23.95
2023-07-04T10:04:54.855Z,23.99
2023-07-04T10:07:25.044Z,24.03
2023-07-04T10:10:13.857Z,24.10
2023-07-04T10:12:46.261Z,24.15
2023-07-04T10:15:25.768Z,24.18
2023-07-04T10:17:53.898Z,24.24
2023-07-04T10:20:21.789Z,24.29
2023-07-04T10:22:54.426Z,24.32
2023-07-04T10:25:23.804Z,24.38
2023-07-04T10:27:57.251Z,24.46
2023-07-04T10:30:32.758Z,24.55
2023-07-04T10:33:05.660Z,24.59
2023-07-04T10:35:36.681Z,24.65
2023-07-04T10:38:13.983Z,24.69
2023-07-04T10:40:42.664Z,24.72
2023-07-04T10:43:14.525Z,24.78
2023-07-04T10:45:52.371Z,24.84
2023-07-04T10:48:32.404Z,24.91
2023-07-04T10:51:04.693Z,24.95
2023-07-04T10:53:32.438Z,24.94
2023-07-04T10:56:01.296Z,24.94
2023-07-04T10:58:34.581Z,24.95
2023-07-04T11:01:07.548Z,24.99
2023-07-04T11:03:35.547Z,24.97
2023-07-04T11:06:09.908Z,24.96
2023-07-04T11:08:40.317Z,24.93
2023-07-04T11:11:14.050Z,24.92
2023-07-04T11:13:54.578Z,24.95
2023-07-04T11:16:28.476Z,24.97
2023-07-04T11:19:07.838Z,24.98
2023-07-04T11:22:06.938Z,24.97
2023-07-04T11:24:54.981Z,24.95
2023-07-04T11:27:28.119Z,24.95
2023-07-04T11:30:04.149Z,24.93
2023-07-04T11:32:38.344Z,24.91
2023-07-04T11:35:12.211Z,24.90
2023-07-04T11:37:44.590Z,24.88
2023-07-04T11:40:19.811Z,24.87
2023-07-04T11:42:52.428Z,24.81
2023-07-04T11:45:26.348Z,24.76
2023-07-04T11:48:03.592Z,24.71
2023-07-04T11:50:35.895Z,24.65
2023-07-04T11:53:11.030Z,24.62
2023-07-04T11:55:39.013Z,24.63
2023-07-04T11:58:09.862Z,24.60
2023-07-04T12:00:38.629Z,24.58
2023-07-04T12:03:19.068Z,24.58
2023-07-04T12:06:33.582Z,24.61
2023-07-04T12:09:01.782Z,24.65
2023-07-04T12:11:44.853Z,24.69
2023-07-04T12:14:15.226Z,24.73
2023-07-04T12:16:45.760Z,24.75
2023-07-04T12:19:20.778Z,24.76
2023-07-04T12:24:37.762Z,24.73
2023-07-04T12:27:06.008Z,24.74
2023-07-04T12:32:20.680Z,24.74
2023-07-04T12:37:21.157Z,24.75
2023-07-04T12:39:50.279Z,24.73
2023-07-04T12:42:28.185Z,24.72
2023-07-04T12:44:56.503Z,24.71
2023-07-04T12:47:33.478Z,24.72
2023-07-04T12:50:04.195Z,24.74
2023-07-04T12:52:35.490Z,24.74
2023-07-04T12:55:05.050Z,24.73
2023-07-04T12:57:33.658Z,24.74
2023-07-04T13:00:20.493Z,24.78
2023-07-04T13:02:49.444Z,24.81
2023-07-04T13:05:18.452Z,24.84
2023-07-04T13:07:49.508Z,24.87
2023-07-04T13:10:26.759Z,24.90
2023-07-04T13:12:55.136Z,24.92
2023-07-04T13:15:31.237Z,24.95
2023-07-04T13:18:03.372Z,24.99
2023-07-04T13:20:34.126Z,25.02
2023-07-04T13:25:54.577Z,25.08
2023-07-04T13:34:28.868Z,25.15
2023-07-04T13:37:03.517Z,25.15
2023-07-04T13:42:03.990Z,25.09
2023-07-04T13:47:04.356Z,25.05
2023-07-04T13:49:32.131Z,25.04
2023-07-04T13:52:00.039Z,25.03
2023-07-04T13:54:28.447Z,25.03
2023-07-04T13:56:56.454Z,25.05
2023-07-04T14:07:15.088Z,25.15
2023-07-04T14:09:42.881Z,25.16
2023-07-04T14:12:11.136Z,25.19
2023-07-04T14:22:11.540Z,25.39
2023-07-04T14:24:39.656Z,25.43
2023-07-04T14:27:07.823Z,25.43
2023-07-04T14:29:35.864Z,25.43
2023-07-04T14:32:04.104Z,25.45
2023-07-04T14:34:32.330Z,25.43
2023-07-04T14:37:00.946Z,25.40
2023-07-04T14:39:29.190Z,25.41
2023-07-04T14:44:30.829Z,25.41
2023-07-04T14:46:58.797Z,25.42
2023-07-04T14:49:26.986Z,25.43
2023-07-04T14:51:54.778Z,25.45
2023-07-04T14:54:22.894Z,25.49
2023-07-04T14:56:51.699Z,25.51
2023-07-04T14:59:20.050Z,25.54
2023-07-04T15:01:47.991Z,25.56
2023-07-04T15:04:16.068Z,25.59
2023-07-04T15:06:43.886Z,25.59
2023-07-04T15:09:11.768Z,25.58
2023-07-04T15:11:39.718Z,25.57
2023-07-04T15:14:07.563Z,25.58
2023-07-04T15:16:35.516Z,25.57
2023-07-04T15:19:03.675Z,25.57
2023-07-04T15:21:31.504Z,25.58
2023-07-04T15:23:59.533Z,25.58
2023-07-04T15:26:28.626Z,25.58
2023-07-04T15:28:57.508Z,25.56
2023-07-04T15:31:26.279Z,25.52
2023-07-04T15:33:54.406Z,25.49
2023-07-04T15:36:22.559Z,25.46
2023-07-04T15:38:50.638Z,25.45
2023-07-04T15:41:20.404Z,25.44
2023-07-04T15:43:50.090Z,25.40
2023-07-04T15:46:18.266Z,25.40
2023-07-04T15:48:46.850Z,25.39
2023-07-04T15:51:20.604Z,25.37
2023-07-04T15:53:49.228Z,25.36
2023-07-04T15:56:20.064Z,25.34
2023-07-04T15:58:47.917Z,25.30
2023-07-04T16:01:16.009Z,25.27
2023-07-04T16:03:44.305Z,25.26
2023-07-04T16:06:12.603Z,25.24
2023-07-04T16:08:42.287Z,25.25
2023-07-04T16:11:14.490Z,25.25
2023-07-04T16:13:43.535Z,25.25
2023-07-04T16:16:12.391Z,25.25
2023-07-04T16:18:40.448Z,25.24
2023-07-04T16:21:08.688Z,25.22
2023-07-04T16:23:36.588Z,25.20
2023-07-04T16:26:04.826Z,25.18
2023-07-04T16:28:32.648Z,25.14
2023-07-04T16:31:05.997Z,25.10
2023-07-04T16:33:34.903Z,25.08
2023-07-04T16:36:05.466Z,25.05
2023-07-04T16:38:33.771Z,25.03
2023-07-04T16:41:02.651Z,25.01
2023-07-04T16:43:31.340Z,25.01
2023-07-04T16:45:59.381Z,25.01
2023-07-04T16:48:27.362Z,25.00
2023-07-04T16:50:58.961Z,25.00
2023-07-04T16:53:27.870Z,25.00
2023-07-04T16:55:58.028Z,24.98
2023-07-04T16:58:30.202Z,24.96
2023-07-04T17:01:00.712Z,24.94
2023-07-04T17:03:29.740Z,24.92
2023-07-04T17:06:03.023Z,24.89
2023-07-04T17:08:33.365Z,24.86
2023-07-04T17:11:06.129Z,24.84
2023-07-04T17:13:37.819Z,24.81
2023-07-04T17:16:09.810Z,24.80
2023-07-04T17:18:38.007Z,24.78
2023-07-04T17:21:06.591Z,24.74
2023-07-04T17:23:34.948Z,24.72
2023-07-04T17:26:03.082Z,24.70
2023-07-04T17:28:30.965Z,24.68
2023-07-04T17:31:00.452Z,24.65
2023-07-04T17:33:29.805Z,24.63
2023-07-04T17:36:10.206Z,24.61
2023-07-04T17:38:38.871Z,24.59
2023-07-04T17:41:17.402Z,24.57
2023-07-04T17:43:45.641Z,24.54
2023-07-04T17:46:13.960Z,24.52
2023-07-04T17:48:47.018Z,24.49
2023-07-04T17:51:28.359Z,24.46
2023-07-04T17:53:56.289Z,24.42
2023-07-04T17:56:27.966Z,24.40
2023-07-04T17:58:55.797Z,24.37
2023-07-04T18:01:26.401Z,24.34
2023-07-04T18:03:56.077Z,24.31
2023-07-04T18:06:24.059Z,24.29
2023-07-04T18:08:52.166Z,24.26
2023-07-04T18:11:25.466Z,24.22
2023-07-04T18:13:56.444Z,24.20
2023-07-04T18:16:26.341Z,24.16
2023-07-04T18:18:54.479Z,24.14
2023-07-04T18:21:24.420Z,24.11
2023-07-04T18:23:56.467Z,24.09
2023-07-04T18:26:24.731Z,24.06
2023-07-04T18:28:55.310Z,24.03
2023-07-04T18:31:30.255Z,24.00
2023-07-04T18:34:03.580Z,23.96
2023-07-04T18:36:34.549Z,23.92
2023-07-04T18:39:03.696Z,23.88
2023-07-04T18:41:37.405Z,23.84
2023-07-04T18:44:07.059Z,23.80
2023-07-04T18:46:36.893Z,23.75
2023-07-04T18:49:05.591Z,23.69
2023-07-04T18:51:35.946Z,23.63
2023-07-04T18:54:04.408Z,23.57
2023-07-04T18:56:37.846Z,23.48
2023-07-04T18:59:05.768Z,23.44
2023-07-04T19:01:34.446Z,23.38
2023-07-04T19:04:02.854Z,23.31
2023-07-04T19:06:35.381Z,23.24
2023-07-04T19:09:04.995Z,23.16
2023-07-04T19:11:40.081Z,23.08
2023-07-04T19:14:19.114Z,22.99
2023-07-04T19:16:52.924Z,22.93
2023-07-04T19:19:33.070Z,22.85
2023-07-04T19:22:05.693Z,22.80
2023-07-04T19:24:35.102Z,22.73
2023-07-04T19:27:03.816Z,22.67
2023-07-04T19:29:32.401Z,22.61
2023-07-04T19:32:02.101Z,22.55
2023-07-04T19:34:30.404Z,22.49
2023-07-04T19:36:58.704Z,22.45
2023-07-04T19:39:28.422Z,22.39
2023-07-04T19:41:56.262Z,22.35
2023-07-04T19:44:25.312Z,22.29
2023-07-04T19:46:54.109Z,22.24
2023-07-04T19:49:22.213Z,22.20
2023-07-04T19:51:50.549Z,22.16
2023-07-04T19:54:19.046Z,22.12
2023-07-04T19:56:46.995Z,22.08
2023-07-04T19:59:14.742Z,22.04
2023-07-04T20:01:42.749Z,22.01
2023-07-04T20:04:10.727Z,21.96
2023-07-04T20:06:39.245Z,21.92
2023-07-04T20:09:07.372Z,21.88
2023-07-04T20:11:35.355Z,21.84
2023-07-04T20:14:03.936Z,21.80
2023-07-04T20:16:33.362Z,21.74
2023-07-04T20:19:01.725Z,21.69
2023-07-04T20:21:29.989Z,21.66
2023-07-04T20:23:57.973Z,21.61
2023-07-04T20:26:28.326Z,21.57
2023-07-04T20:28:59.363Z,21.53
2023-07-04T20:31:27.740Z,21.50
2023-07-04T20:33:56.104Z,21.46
2023-07-04T20:36:23.967Z,21.42
2023-07-04T20:38:52.894Z,21.38
2023-07-04T20:41:21.365Z,21.34
2023-07-04T20:43:49.184Z,21.29
2023-07-04T20:46:17.096Z,21.24
2023-07-04T20:48:45.289Z,21.22
2023-07-04T20:51:13.588Z,21.19
2023-07-04T20:53:41.837Z,21.19
2023-07-04T20:56:10.217Z,21.19
2023-07-04T20:58:38.376Z,21.16
2023-07-04T21:01:07.328Z,21.14
2023-07-04T21:03:38.189Z,21.12
2023-07-04T21:06:06.907Z,21.09
2023-07-04T21:08:35.763Z,21.05
2023-07-04T21:11:04.750Z,21.00
2023-07-04T21:13:34.803Z,20.97
2023-07-04T21:16:09.995Z,20.96
2023-07-04T21:18:39.184Z,20.92
2023-07-04T21:21:07.662Z,20.89
2023-07-04T21:23:36.623Z,20.85
2023-07-04T21:26:07.658Z,20.78
2023-07-04T21:28:36.632Z,20.73
2023-07-04T21:31:07.594Z,20.66
2023-07-04T21:33:36.317Z,20.60
2023-07-04T21:36:05.171Z,20.58
2023-07-04T21:38:35.428Z,20.55
2023-07-04T21:41:04.345Z,20.49
2023-07-04T21:43:32.397Z,20.46
2023-07-04T21:46:05.695Z,20.42
2023-07-04T21:48:33.743Z,20.36
2023-07-04T21:51:04.501Z,20.33
2023-07-04T21:53:33.089Z,20.27
2023-07-04T21:56:02.984Z,20.22
2023-07-04T21:58:31.252Z,20.18
2023-07-04T22:01:06.091Z,20.14
2023-07-04T22:03:36.306Z,20.10
2023-07-04T22:06:07.321Z,20.07
2023-07-04T22:08:36.655Z,20.03
2023-07-04T22:11:05.937Z,19.99
2023-07-04T22:13:35.233Z,19.94
2023-07-04T22:16:05.592Z,19.90
2023-07-04T22:18:34.153Z,19.84
2023-07-04T22:21:10.214Z,19.78
2023-07-04T22:23:39.515Z,19.74
2023-07-04T22:26:09.632Z,19.70
2023-07-04T22:28:38.290Z,19.67
2023-07-04T22:31:14.592Z,19.64
2023-07-04T22:34:00.146Z,19.60
2023-07-04T22:36:29.885Z,19.55
2023-07-04T22:38:59.082Z,19.51
2023-07-04T22:41:28.468Z,19.46
2023-07-04T22:43:56.396Z,19.42
2023-07-04T22:46:25.269Z,19.38
2023-07-04T22:48:53.601Z,19.34
2023-07-04T22:51:21.418Z,19.30
2023-07-04T22:53:50.844Z,19.24
2023-07-04T22:56:19.468Z,19.22
2023-07-04T22:58:47.942Z,19.18
2023-07-04T23:01:19.219Z,19.13
2023-07-04T23:03:49.105Z,19.10
2023-07-04T23:06:18.158Z,19.07
2023-07-04T23:08:46.246Z,19.06
2023-07-04T23:11:14.975Z,19.03
2023-07-04T23:13:42.941Z,19.00
2023-07-04T23:16:20.370Z,18.97
2023-07-04T23:18:49.667Z,18.94
2023-07-04T23:21:18.567Z,18.91
2023-07-04T23:23:48.082Z,18.89
2023-07-04T23:26:19.110Z,18.84
2023-07-04T23:28:47.145Z,18.80
2023-07-04T23:31:15.087Z,18.78
2023-07-04T23:33:45.504Z,18.77
2023-07-04T23:36:17.612Z,18.73
2023-07-04T23:38:48.561Z,18.72
2023-07-04T23:41:17.263Z,18.70
2023-07-04T23:43:45.877Z,18.69
2023-07-04T23:46:14.815Z,18.68
2023-07-04T23:48:44.016Z,18.69
2023-07-04T23:51:12.460Z,18.70
2023-07-04T23:53:40.337Z,18.70
2023-07-04T23:56:09.520Z,18.70
2023-07-04T23:58:37.424Z,18.68
